Time;durP1;ratioP1;P1;durP2;ratioP2;P2;SDS_P1;SDS_P2;PMS_P1;PMS_P2;Temp;Humidity;BMP_temperature;BMP_pressure;BME280_temperature;BME280_humidity;BME280_pressure;Samples;Min_cycle;Max_cycle;Signal;HPM_P1;HPM_P2
2022/05/13 00:00:36;;;;;;;11.48;2.03;;;;;;;;;;5113422;28;20336;-68
2022/05/13 00:03:01;;;;;;;9.18;1.85;;;;;;;;;;5106019;28;20036;-68
2022/05/13 00:05:27;;;;;;;7.43;2.20;;;;;;;;;;5113202;28;20011;-68
2022/05/13 00:08:05;;;;;;;3.25;1.73;;;;;;;;;;5108792;28;20016;-68
2022/05/13 00:10:30;;;;;;;9.48;2.08;;;;;;;;;;5100022;28;20023;-68
2022/05/13 00:12:56;;;;;;;8.60;2.25;;;;;;;;;;5102232;28;20459;-68
2022/05/13 00:15:34;;;;;;;8.82;1.60;;;;;;;;;;5102661;28;20113;-68
2022/05/13 00:18:00;;;;;;;10.57;2.22;;;;;;;;;;5111803;28;20034;-67
2022/05/13 00:20:25;;;;;;;13.65;2.25;;;;;;;;;;5103721;28;20016;-68
2022/05/13 00:23:04;;;;;;;9.93;2.15;;;;;;;;;;5104942;28;20023;-68
2022/05/13 00:25:31;;;;;;;5.70;1.45;;;;;;;;;;5104530;28;20049;-68
2022/05/13 00:27:57;;;;;;;10.82;1.38;;;;;;;;;;5105558;28;20059;-68
2022/05/13 00:30:37;;;;;;;10.02;1.48;;;;;;;;;;5113389;28;20024;-68
2022/05/13 00:33:03;;;;;;;7.35;1.23;;;;;;;;;;5107878;28;20027;-68
2022/05/13 00:35:28;;;;;;;7.75;1.73;;;;;;;;;;5112561;28;20024;-68
2022/05/13 00:38:07;;;;;;;9.05;1.55;;;;;;;;;;5109895;28;20082;-68
2022/05/13 00:40:32;;;;;;;9.65;1.35;;;;;;;;;;5111965;28;20125;-68
2022/05/13 00:43:02;;;;;;;9.15;1.30;;;;;;;;;;5111515;28;20094;-68
2022/05/13 00:45:41;;;;;;;8.68;1.40;;;;;;;;;;5103200;28;20040;-68
2022/05/13 00:48:07;;;;;;;7.22;1.40;;;;;;;;;;5095240;28;20394;-68
2022/05/13 00:50:34;;;;;;;8.48;1.50;;;;;;;;;;5102899;28;20016;-68
2022/05/13 00:53:12;;;;;;;7.78;1.42;;;;;;;;;;5101309;28;20094;-68
2022/05/13 00:55:40;;;;;;;8.27;1.50;;;;;;;;;;5102285;28;20042;-68
2022/05/13 00:58:07;;;;;;;7.68;1.63;;;;;;;;;;5085943;28;20379;-68
2022/05/13 01:00:45;;;;;;;4.25;1.40;;;;;;;;;;5112933;28;20016;-68
2022/05/13 01:03:11;;;;;;;4.47;1.52;;;;;;;;;;5114673;28;20028;-68
2022/05/13 01:05:38;;;;;;;15.32;2.42;;;;;;;;;;5110380;28;20036;-68
2022/05/13 01:08:17;;;;;;;5.43;1.42;;;;;;;;;;5108427;28;20016;-68
2022/05/13 01:10:44;;;;;;;9.93;1.70;;;;;;;;;;5113059;28;20817;-68
2022/05/13 01:13:28;;;;;;;7.43;1.40;;;;;;;;;;5112367;28;20023;-68
2022/05/13 01:15:54;;;;;;;6.63;2.72;;;;;;;;;;5106373;28;20035;-68
2022/05/13 01:18:33;;;;;;;11.35;1.70;;;;;;;;;;5115503;28;20188;-68
2022/05/13 01:20:59;;;;;;;16.15;2.65;;;;;;;;;;5112893;28;20036;-68
2022/05/13 01:23:27;;;;;;;10.13;1.75;;;;;;;;;;5117073;28;20048;-68
2022/05/13 01:26:07;;;;;;;7.03;1.77;;;;;;;;;;5107183;28;20039;-68
2022/05/13 01:28:43;;;;;;;6.28;2.20;;;;;;;;;;5113862;28;20490;-68
2022/05/13 01:31:29;;;;;;;7.38;1.95;;;;;;;;;;5116520;28;20027;-68
2022/05/13 01:33:55;;;;;;;7.13;2.25;;;;;;;;;;5111710;28;20024;-68
2022/05/13 01:36:34;;;;;;;7.97;1.73;;;;;;;;;;5109319;28;20019;-68
2022/05/13 01:38:59;;;;;;;4.25;1.50;;;;;;;;;;5113854;28;20402;-67
2022/05/13 01:41:25;;;;;;;10.13;1.73;;;;;;;;;;5104590;28;20099;-68
2022/05/13 01:44:03;;;;;;;8.85;1.75;;;;;;;;;;5115832;28;20020;-68
2022/05/13 01:46:28;;;;;;;8.32;2.15;;;;;;;;;;5105513;28;20038;-68
2022/05/13 01:48:54;;;;;;;9.15;1.98;;;;;;;;;;5116233;28;20099;-68
2022/05/13 01:51:33;;;;;;;10.30;2.42;;;;;;;;;;5109561;28;20020;-68
2022/05/13 01:53:59;;;;;;;5.97;1.90;;;;;;;;;;5115105;28;20027;-68
2022/05/13 01:56:25;;;;;;;10.95;1.80;;;;;;;;;;5111479;28;20077;-68
2022/05/13 01:59:03;;;;;;;9.45;2.00;;;;;;;;;;5111040;28;20336;-68
2022/05/13 02:01:28;;;;;;;12.82;1.92;;;;;;;;;;5111985;28;20474;-68
2022/05/13 02:03:54;;;;;;;10.10;1.98;;;;;;;;;;5104983;28;20066;-67
2022/05/13 02:06:34;;;;;;;11.27;1.73;;;;;;;;;;5110569;28;20031;-68
2022/05/13 02:08:59;;;;;;;8.80;2.28;;;;;;;;;;5113827;28;20058;-68
2022/05/13 02:11:27;;;;;;;7.13;1.90;;;;;;;;;;5110908;28;20047;-68
2022/05/13 02:14:05;;;;;;;8.40;2.30;;;;;;;;;;5109514;28;20051;-68
2022/05/13 02:16:30;;;;;;;10.13;2.05;;;;;;;;;;5101449;28;20036;-68
2022/05/13 02:18:57;;;;;;;6.85;1.75;;;;;;;;;;5112535;28;20012;-68
2022/05/13 02:21:35;;;;;;;8.60;2.20;;;;;;;;;;5113600;28;20020;-68
2022/05/13 02:24:00;;;;;;;8.00;1.80;;;;;;;;;;5115578;28;20023;-68
2022/05/13 02:26:26;;;;;;;6.07;2.00;;;;;;;;;;5107190;28;20448;-68
2022/05/13 02:29:04;;;;;;;11.82;2.55;;;;;;;;;;5110203;28;20020;-68
2022/05/13 02:31:30;;;;;;;7.88;2.22;;;;;;;;;;5109095;28;20043;-68
2022/05/13 02:33:55;;;;;;;17.83;2.30;;;;;;;;;;5115782;28;20024;-68
2022/05/13 02:36:34;;;;;;;7.88;2.55;;;;;;;;;;5107679;28;20383;-68
2022/05/13 02:38:59;;;;;;;12.23;2.25;;;;;;;;;;5115639;28;20034;-68
2022/05/13 02:41:25;;;;;;;11.75;2.13;;;;;;;;;;5109040;28;20016;-68
2022/05/13 02:44:03;;;;;;;9.85;2.05;;;;;;;;;;5115320;28;20057;-68
2022/05/13 02:46:32;;;;;;;7.15;1.92;;;;;;;;;;5112819;28;20197;-68
2022/05/13 02:49:10;;;;;;;8.85;1.80;;;;;;;;;;5108511;28;20817;-68
2022/05/13 02:51:35;;;;;;;10.75;2.80;;;;;;;;;;5112576;28;20062;-68
2022/05/13 02:54:01;;;;;;;11.75;2.10;;;;;;;;;;5110244;28;20478;-68
2022/05/13 02:56:39;;;;;;;7.22;1.92;;;;;;;;;;5107482;28;20016;-68
2022/05/13 02:59:05;;;;;;;7.32;1.80;;;;;;;;;;5107449;28;20031;-68
2022/05/13 03:01:32;;;;;;;8.85;1.75;;;;;;;;;;5106576;28;20046;-68
2022/05/13 03:04:10;;;;;;;5.22;1.70;;;;;;;;;;5113098;28;20084;-68
2022/05/13 03:06:35;;;;;;;8.30;1.92;;;;;;;;;;5110481;28;20024;-68
2022/05/13 03:09:01;;;;;;;8.48;1.95;;;;;;;;;;5105828;28;20085;-68
2022/05/13 03:11:40;;;;;;;22.10;2.40;;;;;;;;;;5106366;28;20470;-68
2022/05/13 03:14:05;;;;;;;13.80;1.90;;;;;;;;;;5114525;28;20034;-68
2022/05/13 03:16:31;;;;;;;14.00;2.10;;;;;;;;;;5110001;28;20464;-68
2022/05/13 03:19:11;;;;;;;7.80;1.80;;;;;;;;;;5114742;28;20015;-68
2022/05/13 03:21:36;;;;;;;9.60;1.80;;;;;;;;;;5108508;28;20038;-68
2022/05/13 03:24:02;;;;;;;8.60;1.90;;;;;;;;;;5114350;28;20012;-68
2022/05/13 03:26:40;;;;;;;12.60;1.92;;;;;;;;;;5102901;28;20034;-68
2022/05/13 03:29:05;;;;;;;9.73;2.05;;;;;;;;;;5108020;28;20441;-68
2022/05/13 03:31:32;;;;;;;8.60;1.92;;;;;;;;;;5114189;28;20027;-68
2022/05/13 03:34:11;;;;;;;7.40;1.70;;;;;;;;;;5114059;28;20023;-68
2022/05/13 03:36:36;;;;;;;11.77;2.65;;;;;;;;;;5099992;28;20506;-68
2022/05/13 03:39:01;;;;;;;11.45;2.15;;;;;;;;;;5110627;28;20020;-68
2022/05/13 03:41:40;;;;;;;8.40;1.77;;;;;;;;;;5101091;28;20389;-68
2022/05/13 03:44:05;;;;;;;10.93;2.00;;;;;;;;;;5112648;28;20456;-68
2022/05/13 03:46:31;;;;;;;6.78;1.73;;;;;;;;;;5101617;28;20095;-68
2022/05/13 03:49:09;;;;;;;14.25;1.80;;;;;;;;;;5113133;28;20023;-68
2022/05/13 03:51:35;;;;;;;12.27;1.95;;;;;;;;;;5107190;28;20432;-68
2022/05/13 03:54:00;;;;;;;7.05;1.77;;;;;;;;;;5113241;28;20012;-68
2022/05/13 03:56:39;;;;;;;11.18;2.13;;;;;;;;;;5107150;28;20068;-68
2022/05/13 03:59:04;;;;;;;10.80;2.00;;;;;;;;;;5110324;28;20073;-68
2022/05/13 04:01:30;;;;;;;11.40;2.58;;;;;;;;;;5107794;28;20027;-68
2022/05/13 04:04:08;;;;;;;16.40;2.60;;;;;;;;;;5110665;28;20106;-68
2022/05/13 04:09:30;;;;;;;14.02;3.00;;;;;;;;;;5108862;28;20861;-68
2022/05/13 04:17:37;;;;;;;8.15;2.05;;;;;;;;;;5099392;28;20110;-68
2022/05/13 04:20:21;;;;;;;8.15;2.47;;;;;;;;;;5109656;28;20039;-68
2022/05/13 04:22:46;;;;;;;9.77;2.33;;;;;;;;;;5102240;28;20448;-68
2022/05/13 04:25:24;;;;;;;14.38;2.65;;;;;;;;;;5108110;28;20067;-68
2022/05/13 04:27:50;;;;;;;9.60;2.63;;;;;;;;;;5103278;28;20553;-68
2022/05/13 04:30:15;;;;;;;7.28;2.35;;;;;;;;;;5104701;28;20043;-68
2022/05/13 04:32:53;;;;;;;14.52;2.22;;;;;;;;;;5104670;28;20024;-68
2022/05/13 04:35:18;;;;;;;10.90;2.40;;;;;;;;;;5107070;28;20114;-68
2022/05/13 04:37:44;;;;;;;16.23;2.40;;;;;;;;;;5107070;28;20111;-68
2022/05/13 04:40:23;;;;;;;8.95;2.05;;;;;;;;;;5108849;28;20115;-68
2022/05/13 04:42:51;;;;;;;8.73;1.98;;;;;;;;;;5108568;28;20497;-68
2022/05/13 04:45:31;;;;;;;10.57;2.42;;;;;;;;;;5112983;28;20050;-68
2022/05/13 04:48:16;;;;;;;9.35;2.20;;;;;;;;;;5107436;28;20391;-68
2022/05/13 04:51:01;;;;;;;14.90;2.67;;;;;;;;;;5099828;28;20027;-68
2022/05/13 04:53:36;;;;;;;13.80;2.28;;;;;;;;;;5113532;28;20375;-68
2022/05/13 04:56:14;;;;;;;7.65;1.85;;;;;;;;;;5106254;28;20016;-68
2022/05/13 04:58:41;;;;;;;12.35;2.03;;;;;;;;;;5096505;28;20039;-68
2022/05/13 05:01:07;;;;;;;14.98;2.30;;;;;;;;;;5099106;28;20047;-68
2022/05/13 05:03:46;;;;;;;9.48;2.10;;;;;;;;;;5106012;28;20455;-67
2022/05/13 05:06:12;;;;;;;7.90;2.17;;;;;;;;;;5101579;28;20038;-68
2022/05/13 05:08:38;;;;;;;9.77;1.90;;;;;;;;;;5102065;28;20031;-68
2022/05/13 05:11:17;;;;;;;8.43;2.72;;;;;;;;;;5106830;28;20453;-68
2022/05/13 05:13:44;;;;;;;13.05;2.10;;;;;;;;;;5107432;28;20424;-68
2022/05/13 05:16:10;;;;;;;12.40;2.40;;;;;;;;;;5100298;28;20100;-68
2022/05/13 05:18:48;;;;;;;17.73;2.70;;;;;;;;;;5111890;28;20024;-68
2022/05/13 05:21:13;;;;;;;15.23;2.50;;;;;;;;;;5107754;28;20028;-68
2022/05/13 05:23:40;;;;;;;12.55;2.60;;;;;;;;;;5105819;28;20008;-68
2022/05/13 05:26:19;;;;;;;11.25;2.70;;;;;;;;;;5105195;28;20031;-68
2022/05/13 05:28:45;;;;;;;13.60;3.10;;;;;;;;;;5102614;28;20052;-68
2022/05/13 05:31:13;;;;;;;13.48;3.47;;;;;;;;;;5106809;28;20576;-68
2022/05/13 05:33:52;;;;;;;14.30;2.50;;;;;;;;;;5110006;28;20024;-68
2022/05/13 05:36:17;;;;;;;11.60;2.30;;;;;;;;;;5109221;28;20489;-68
2022/05/13 05:38:43;;;;;;;14.30;2.97;;;;;;;;;;5105533;28;20007;-68
2022/05/13 05:41:21;;;;;;;18.27;5.40;;;;;;;;;;5110772;28;20477;-68
2022/05/13 05:43:47;;;;;;;13.00;3.22;;;;;;;;;;5112947;28;20031;-68
2022/05/13 05:46:12;;;;;;;12.88;3.05;;;;;;;;;;5096043;28;20032;-68
2022/05/13 05:48:50;;;;;;;24.48;3.90;;;;;;;;;;5109690;28;20091;-68
2022/05/13 05:51:15;;;;;;;16.88;3.58;;;;;;;;;;5103980;28;20486;-68
2022/05/13 05:59:24;;;;;;;15.35;2.50;;;;;;;;;;5111610;28;20038;-68
2022/05/13 06:02:02;;;;;;;10.07;2.38;;;;;;;;;;5109163;28;20382;-68
2022/05/13 06:04:27;;;;;;;11.27;2.80;;;;;;;;;;5115917;28;20032;-68
2022/05/13 06:06:53;;;;;;;10.07;2.30;;;;;;;;;;5112232;28;20073;-68
2022/05/13 06:09:31;;;;;;;17.08;2.92;;;;;;;;;;5111389;28;20030;-68
2022/05/13 06:11:57;;;;;;;11.38;2.63;;;;;;;;;;5111657;28;20020;-68
2022/05/13 06:14:22;;;;;;;12.00;2.35;;;;;;;;;;5114438;28;20084;-68
2022/05/13 06:17:00;;;;;;;14.77;2.20;;;;;;;;;;5110241;28;20111;-68
2022/05/13 06:19:26;;;;;;;10.10;2.40;;;;;;;;;;5113559;28;20161;-68
2022/05/13 06:21:51;;;;;;;13.60;1.92;;;;;;;;;;5097089;28;20099;-68
2022/05/13 06:24:30;;;;;;;8.13;1.88;;;;;;;;;;5113455;28;20020;-68
2022/05/13 06:26:56;;;;;;;8.45;2.22;;;;;;;;;;5097931;28;20056;-68
2022/05/13 06:29:22;;;;;;;10.77;2.35;;;;;;;;;;5115005;28;20149;-68
2022/05/13 06:32:01;;;;;;;10.85;2.53;;;;;;;;;;5107286;28;20020;-68
2022/05/13 06:34:26;;;;;;;10.80;2.15;;;;;;;;;;5113306;28;20026;-68
2022/05/13 06:36:52;;;;;;;13.38;2.03;;;;;;;;;;5101981;28;20100;-67
2022/05/13 06:39:30;;;;;;;11.75;2.17;;;;;;;;;;5115315;28;20019;-68
2022/05/13 06:41:55;;;;;;;17.05;3.25;;;;;;;;;;5109607;28;20042;-68
2022/05/13 06:44:21;;;;;;;12.38;2.33;;;;;;;;;;5112485;28;20111;-68
2022/05/13 06:46:59;;;;;;;14.15;2.88;;;;;;;;;;5107305;28;20024;-68
2022/05/13 06:49:25;;;;;;;13.77;2.08;;;;;;;;;;5114197;28;20032;-68
2022/05/13 06:51:50;;;;;;;8.15;1.65;;;;;;;;;;5111544;28;20080;-68
2022/05/13 06:54:28;;;;;;;13.35;2.03;;;;;;;;;;5114588;28;20542;-68
2022/05/13 06:56:54;;;;;;;9.15;2.10;;;;;;;;;;5113973;28;20442;-68
2022/05/13 06:59:20;;;;;;;13.07;2.15;;;;;;;;;;5110137;28;20032;-68
2022/05/13 07:01:58;;;;;;;14.02;2.15;;;;;;;;;;5109204;28;20095;-68
2022/05/13 07:04:23;;;;;;;6.80;1.80;;;;;;;;;;5109256;28;20058;-68
2022/05/13 07:06:49;;;;;;;12.63;1.92;;;;;;;;;;5114920;28;20012;-68
2022/05/13 07:09:27;;;;;;;13.02;2.10;;;;;;;;;;5105191;28;20011;-68
2022/05/13 07:11:54;;;;;;;10.63;2.38;;;;;;;;;;5114986;28;20028;-68
2022/05/13 07:14:19;;;;;;;10.05;1.90;;;;;;;;;;5114493;28;20471;-68
2022/05/13 07:16:58;;;;;;;11.43;2.53;;;;;;;;;;5113175;28;20024;-68
2022/05/13 07:19:23;;;;;;;7.88;2.53;;;;;;;;;;5112879;28;20168;-68
2022/05/13 07:21:50;;;;;;;9.68;2.13;;;;;;;;;;5110797;28;20503;-69
2022/05/13 07:24:28;;;;;;;10.10;2.70;;;;;;;;;;5114682;28;20020;-68
2022/05/13 07:26:53;;;;;;;8.65;2.13;;;;;;;;;;5113354;28;20034;-68
2022/05/13 07:29:19;;;;;;;12.23;2.20;;;;;;;;;;5114256;28;20015;-68
2022/05/13 07:31:57;;;;;;;10.75;1.92;;;;;;;;;;5096267;28;20016;-68
2022/05/13 07:34:23;;;;;;;12.82;2.90;;;;;;;;;;5113132;28;20470;-68
2022/05/13 07:36:48;;;;;;;13.07;2.70;;;;;;;;;;5101134;28;20023;-68
2022/05/13 07:42:12;;;;;;;10.85;2.17;;;;;;;;;;5106010;28;20054;-68
2022/05/13 07:44:50;;;;;;;7.90;2.13;;;;;;;;;;5108974;28;20396;-68
2022/05/13 07:47:16;;;;;;;9.35;2.10;;;;;;;;;;5083364;28;20396;-68
2022/05/13 07:49:42;;;;;;;9.95;2.75;;;;;;;;;;5100691;28;20095;-68
2022/05/13 07:52:24;;;;;;;14.32;2.78;;;;;;;;;;5110598;28;20054;-68
2022/05/13 07:54:49;;;;;;;10.82;1.90;;;;;;;;;;5110493;28;20032;-68
2022/05/13 07:57:14;;;;;;;8.45;1.70;;;;;;;;;;5109353;28;20493;-68
2022/05/13 08:02:37;;;;;;;13.77;1.95;;;;;;;;;;5098910;28;20117;-68
2022/05/13 08:05:16;;;;;;;11.13;2.80;;;;;;;;;;5097627;28;20028;-68
2022/05/13 08:07:41;;;;;;;12.68;2.10;;;;;;;;;;5103872;28;20110;-68
2022/05/13 08:10:07;;;;;;;8.88;1.73;;;;;;;;;;5105996;28;20091;-68
2022/05/13 08:12:45;;;;;;;9.98;2.95;;;;;;;;;;5107858;28;20444;-68
2022/05/13 08:15:11;;;;;;;8.73;2.30;;;;;;;;;;5099152;28;20054;-68
2022/05/13 08:17:36;;;;;;;15.77;2.90;;;;;;;;;;5108924;28;20024;-68
2022/05/13 08:20:14;;;;;;;11.07;2.42;;;;;;;;;;5109490;28;20461;-68
2022/05/13 08:22:39;;;;;;;11.15;2.17;;;;;;;;;;5110104;28;20035;-68
2022/05/13 08:25:05;;;;;;;7.75;1.60;;;;;;;;;;5109631;28;20044;-68
2022/05/13 08:27:44;;;;;;;14.70;2.80;;;;;;;;;;5108062;28;20066;-69
2022/05/13 08:30:10;;;;;;;10.75;1.83;;;;;;;;;;5108469;28;20490;-68
2022/05/13 08:32:35;;;;;;;9.15;1.80;;;;;;;;;;5109632;28;20023;-68
2022/05/13 08:35:14;;;;;;;9.95;1.90;;;;;;;;;;5109968;28;20348;-68
2022/05/13 08:37:50;;;;;;;14.00;2.20;;;;;;;;;;5107485;28;20023;-68
2022/05/13 08:40:47;;;;;;;7.20;2.30;;;;;;;;;;5107228;28;20051;-68
2022/05/13 08:43:14;;;;;;;9.70;2.10;;;;;;;;;;5109683;28;20031;-68
2022/05/13 08:46:14;;;;;;;13.57;2.22;;;;;;;;;;5109838;28;20031;-68
2022/05/13 08:48:45;;;;;;;10.48;2.00;;;;;;;;;;5100011;28;20490;-68
2022/05/13 08:51:27;;;;;;;10.02;2.00;;;;;;;;;;5109692;28;20424;-68
2022/05/13 08:53:58;;;;;;;10.73;2.55;;;;;;;;;;5109336;28;20043;-68
2022/05/13 08:56:37;;;;;;;9.75;2.35;;;;;;;;;;5103764;28;20012;-68
2022/05/13 08:59:12;;;;;;;13.40;2.47;;;;;;;;;;5102710;28;20027;-68
2022/05/13 09:02:26;;;;;;;12.10;2.60;;;;;;;;;;5107850;28;20051;-68
2022/05/13 09:04:59;;;;;;;13.50;2.85;;;;;;;;;;5025883;28;20466;-68
2022/05/13 09:07:38;;;;;;;13.95;2.97;;;;;;;;;;5098919;28;20124;-68
2022/05/13 09:10:06;;;;;;;11.55;2.83;;;;;;;;;;5100501;28;20407;-68
2022/05/13 09:12:58;;;;;;;15.88;3.55;;;;;;;;;;5106051;28;20024;-68
2022/05/13 09:15:39;;;;;;;8.95;2.38;;;;;;;;;;5108313;28;20039;-68
2022/05/13 09:18:20;;;;;;;12.15;3.05;;;;;;;;;;5100918;28;20031;-68
2022/05/13 09:20:50;;;;;;;12.00;2.90;;;;;;;;;;5109346;28;20189;-68
2022/05/13 09:23:29;;;;;;;14.48;3.05;;;;;;;;;;5095098;28;20035;-69
2022/05/13 09:25:57;;;;;;;13.30;3.58;;;;;;;;;;5089171;28;20040;-68
2022/05/13 09:28:37;;;;;;;13.90;3.08;;;;;;;;;;5106278;28;20059;-68
2022/05/13 09:31:16;;;;;;;9.77;2.65;;;;;;;;;;5106260;28;20042;-68
2022/05/13 09:33:54;;;;;;;9.82;2.90;;;;;;;;;;5108936;28;20028;-68
2022/05/13 09:36:21;;;;;;;14.40;3.05;;;;;;;;;;5105784;28;20038;-68
2022/05/13 09:39:03;;;;;;;10.90;2.92;;;;;;;;;;5112769;28;20020;-68
2022/05/13 09:41:35;;;;;;;10.68;2.70;;;;;;;;;;5112779;28;20107;-68
2022/05/13 09:44:11;;;;;;;11.35;3.05;;;;;;;;;;5112852;28;20054;-68
2022/05/13 09:47:03;;;;;;;13.88;3.22;;;;;;;;;;5093258;28;20192;-68
2022/05/13 09:49:38;;;;;;;9.40;3.03;;;;;;;;;;5110206;28;20032;-69
2022/05/13 09:52:12;;;;;;;11.30;3.05;;;;;;;;;;5112462;28;20109;-68
2022/05/13 09:54:47;;;;;;;12.68;3.58;;;;;;;;;;5112560;28;20031;-69
2022/05/13 09:57:30;;;;;;;9.57;2.75;;;;;;;;;;5108286;28;20043;-69
2022/05/13 10:00:05;;;;;;;10.50;3.17;;;;;;;;;;5112369;28;20042;-68
2022/05/13 10:02:40;;;;;;;10.10;2.83;;;;;;;;;;5107966;28;20026;-68
2022/05/13 10:05:17;;;;;;;8.60;2.42;;;;;;;;;;5106315;28;20051;-69
2022/05/13 10:07:49;;;;;;;7.35;2.83;;;;;;;;;;5103773;28;20055;-69
2022/05/13 10:16:12;;;;;;;7.00;2.70;;;;;;;;;;5112825;28;20085;-69
2022/05/13 10:18:51;;;;;;;12.10;3.50;;;;;;;;;;5112726;28;20162;-69
2022/05/13 10:21:27;;;;;;;13.70;3.58;;;;;;;;;;5108413;28;20538;-69
2022/05/13 10:23:59;;;;;;;9.10;3.13;;;;;;;;;;5107339;28;20107;-68
2022/05/13 10:26:35;;;;;;;12.27;2.85;;;;;;;;;;5111897;28;20092;-69
2022/05/13 10:29:15;;;;;;;14.40;2.90;;;;;;;;;;5110678;28;20122;-70
2022/05/13 10:31:49;;;;;;;13.93;3.35;;;;;;;;;;5111728;28;20031;-69
2022/05/13 10:34:33;;;;;;;14.45;3.28;;;;;;;;;;5111348;28;20051;-68
2022/05/13 10:37:10;;;;;;;10.57;2.92;;;;;;;;;;5105160;28;20490;-69
2022/05/13 10:39:44;;;;;;;15.82;3.22;;;;;;;;;;5111598;28;20028;-69
2022/05/13 10:42:19;;;;;;;15.07;3.47;;;;;;;;;;5112082;28;20040;-68
2022/05/13 10:45:10;;;;;;;10.43;2.83;;;;;;;;;;5092398;28;20116;-69
2022/05/13 10:47:57;;;;;;;12.10;2.75;;;;;;;;;;5082484;28;20483;-68
2022/05/13 10:50:38;;;;;;;14.45;3.10;;;;;;;;;;5106799;28;20096;-68
2022/05/13 10:53:23;;;;;;;10.65;2.67;;;;;;;;;;5111237;28;20031;-69
2022/05/13 10:56:02;;;;;;;13.40;3.00;;;;;;;;;;5110506;28;20027;-68
2022/05/13 10:58:56;;;;;;;13.60;3.03;;;;;;;;;;5104969;28;20045;-68
2022/05/13 11:01:48;;;;;;;13.85;3.10;;;;;;;;;;5110565;28;20031;-68
2022/05/13 11:04:49;;;;;;;9.60;2.90;;;;;;;;;;5110998;28;20488;-69
2022/05/13 11:07:54;;;;;;;12.20;2.55;;;;;;;;;;5093575;28;20126;-68
2022/05/13 11:10:28;;;;;;;13.02;3.05;;;;;;;;;;5055742;28;20135;-68
2022/05/13 11:13:00;;;;;;;12.45;2.95;;;;;;;;;;5110935;28;20954;-68
2022/05/13 11:15:53;;;;;;;13.60;2.92;;;;;;;;;;5101976;28;20908;-68
2022/05/13 11:18:28;;;;;;;11.05;3.30;;;;;;;;;;5110258;28;20540;-69
2022/05/13 11:21:26;;;;;;;12.20;3.60;;;;;;;;;;5106304;28;20023;-68
2022/05/13 11:26:59;;;;;;;18.52;3.20;;;;;;;;;;5094122;28;20105;-68
2022/05/13 11:29:40;;;;;;;13.27;2.97;;;;;;;;;;5108023;28;20082;-68
2022/05/13 11:32:18;;;;;;;12.07;2.85;;;;;;;;;;5101325;28;20106;-68
2022/05/13 11:34:59;;;;;;;11.50;2.67;;;;;;;;;;5106911;28;20035;-68
2022/05/13 11:37:33;;;;;;;19.42;3.67;;;;;;;;;;5091165;28;20061;-68
2022/05/13 11:40:14;;;;;;;12.07;2.53;;;;;;;;;;5109976;28;20063;-68
2022/05/13 11:45:42;;;;;;;11.30;3.15;;;;;;;;;;5109017;28;20042;-68
2022/05/13 11:48:17;;;;;;;8.77;3.15;;;;;;;;;;5098874;28;20031;-68
2022/05/13 11:50:50;;;;;;;11.30;2.47;;;;;;;;;;5108573;28;20027;-68
2022/05/13 11:53:40;;;;;;;11.43;2.63;;;;;;;;;;5095998;28;20035;-69
2022/05/13 11:56:17;;;;;;;12.35;2.53;;;;;;;;;;5109882;28;20046;-68
2022/05/13 11:58:54;;;;;;;10.25;2.70;;;;;;;;;;5110164;28;20093;-68
2022/05/13 12:01:36;;;;;;;9.93;2.70;;;;;;;;;;5087033;28;20027;-68
2022/05/13 12:04:20;;;;;;;7.07;2.45;;;;;;;;;;5097655;28;20467;-68
2022/05/13 12:06:57;;;;;;;9.57;2.45;;;;;;;;;;5109589;28;20039;-68
2022/05/13 12:09:32;;;;;;;9.45;2.50;;;;;;;;;;5099883;28;20099;-68
2022/05/13 12:12:08;;;;;;;5.93;2.50;;;;;;;;;;5098059;28;20031;-68
2022/05/13 12:14:58;;;;;;;13.88;2.85;;;;;;;;;;5098758;28;20024;-68
2022/05/13 12:17:46;;;;;;;10.52;2.58;;;;;;;;;;5104266;28;20031;-68
2022/05/13 12:20:22;;;;;;;12.13;2.97;;;;;;;;;;5105913;28;20043;-68
2022/05/13 12:23:07;;;;;;;13.18;2.40;;;;;;;;;;5098186;28;20416;-68
2022/05/13 12:25:38;;;;;;;10.77;2.15;;;;;;;;;;5108600;28;20552;-68
2022/05/13 12:28:21;;;;;;;13.50;2.45;;;;;;;;;;5101432;28;20044;-68
2022/05/13 12:30:57;;;;;;;12.40;2.22;;;;;;;;;;5090999;28;20110;-68
2022/05/13 12:33:33;;;;;;;8.02;1.88;;;;;;;;;;5108998;28;20686;-68
2022/05/13 12:39:15;;;;;;;12.68;2.30;;;;;;;;;;5106177;28;20054;-68
2022/05/13 12:41:48;;;;;;;10.77;2.53;;;;;;;;;;5091090;28;20630;-68
2022/05/13 12:44:45;;;;;;;13.35;2.40;;;;;;;;;;5099958;28;20024;-68
2022/05/13 12:47:20;;;;;;;16.05;3.05;;;;;;;;;;5063889;28;20043;-68
2022/05/13 12:49:52;;;;;;;10.73;2.92;;;;;;;;;;5108970;28;20468;-69
2022/05/13 12:52:33;;;;;;;12.70;2.75;;;;;;;;;;5090670;28;20027;-69
2022/05/13 12:55:06;;;;;;;12.00;2.72;;;;;;;;;;5104714;28;20058;-68
2022/05/13 12:57:40;;;;;;;10.60;2.63;;;;;;;;;;5101203;28;20395;-68
2022/05/13 13:00:14;;;;;;;9.32;2.45;;;;;;;;;;5102514;28;20043;-68
2022/05/13 13:02:47;;;;;;;7.85;2.00;;;;;;;;;;5106596;28;20035;-68
2022/05/13 13:05:32;;;;;;;13.98;2.38;;;;;;;;;;5102362;28;20478;-68
2022/05/13 13:08:10;;;;;;;13.85;2.60;;;;;;;;;;5111388;28;20066;-68
2022/05/13 13:10:57;;;;;;;11.45;2.75;;;;;;;;;;5098925;28;20090;-69
2022/05/13 13:13:31;;;;;;;12.38;2.42;;;;;;;;;;5110729;28;20043;-68
2022/05/13 13:16:06;;;;;;;14.60;2.95;;;;;;;;;;5104683;28;20107;-68
2022/05/13 13:18:41;;;;;;;12.27;3.03;;;;;;;;;;5113748;28;20042;-68
2022/05/13 13:21:15;;;;;;;7.03;2.90;;;;;;;;;;5109990;28;20051;-68
2022/05/13 13:23:40;;;;;;;;;;;;;;;;;;5112460;28;20103;-68
2022/05/13 13:26:13;;;;;;;7.32;2.30;;;;;;;;;;5113442;28;19912;-68
2022/05/13 13:28:50;;;;;;;9.73;2.75;;;;;;;;;;5112061;28;20172;-68
2022/05/13 13:31:29;;;;;;;12.90;2.80;;;;;;;;;;5112904;28;20039;-67
2022/05/13 13:34:01;;;;;;;10.60;3.00;;;;;;;;;;5104011;28;20038;-68
2022/05/13 13:36:29;;;;;;;19.00;4.07;;;;;;;;;;5112790;28;20070;-68
2022/05/13 13:39:02;;;;;;;9.93;2.65;;;;;;;;;;5112823;28;20418;-68
2022/05/13 13:41:35;;;;;;;10.38;2.80;;;;;;;;;;5112762;28;20032;-68
2022/05/13 13:44:02;;;;;;;14.48;3.28;;;;;;;;;;5111922;28;20031;-68
2022/05/13 13:46:40;;;;;;;8.70;2.60;;;;;;;;;;5112732;28;20040;-68
2022/05/13 13:49:32;;;;;;;8.93;3.10;;;;;;;;;;5112141;28;20032;-68
2022/05/13 13:52:08;;;;;;;10.13;3.03;;;;;;;;;;5112002;28;20031;-68
2022/05/13 13:54:42;;;;;;;12.23;3.65;;;;;;;;;;5111296;28;20047;-67
2022/05/13 13:57:20;;;;;;;15.88;3.17;;;;;;;;;;5112719;28;20032;-68
2022/05/13 13:59:58;;;;;;;17.27;2.45;;;;;;;;;;5112535;28;20015;-68
2022/05/13 14:02:49;;;;;;;15.60;2.88;;;;;;;;;;5109142;28;20390;-68
2022/05/13 14:05:32;;;;;;;11.32;2.40;;;;;;;;;;5100872;28;20071;-68
2022/05/13 14:08:04;;;;;;;14.02;2.42;;;;;;;;;;5109423;28;20031;-68
2022/05/13 14:11:15;;;;;;;11.40;3.05;;;;;;;;;;5111608;28;20394;-69
2022/05/13 14:13:50;;;;;;;12.35;3.85;;;;;;;;;;5010124;28;20087;-68
2022/05/13 14:16:27;;;;;;;12.13;3.78;;;;;;;;;;5011457;28;20033;-68
2022/05/13 14:19:11;;;;;;;15.65;3.58;;;;;;;;;;5062676;28;20063;-68
2022/05/13 14:21:48;;;;;;;9.70;3.08;;;;;;;;;;5106503;28;20023;-68
2022/05/13 14:24:19;;;;;;;8.80;3.10;;;;;;;;;;5111213;28;20024;-68
2022/05/13 14:26:59;;;;;;;15.45;3.60;;;;;;;;;;5102471;28;20177;-68
2022/05/13 14:29:31;;;;;;;12.43;3.42;;;;;;;;;;5110781;28;20128;-68
2022/05/13 14:32:06;;;;;;;14.95;3.45;;;;;;;;;;5111944;28;20036;-68
2022/05/13 14:34:31;;;;;;;13.73;3.30;;;;;;;;;;5111300;28;20035;-68
2022/05/13 14:37:04;;;;;;;12.95;3.17;;;;;;;;;;5111579;28;20362;-68
2022/05/13 14:39:50;;;;;;;12.02;3.08;;;;;;;;;;5111991;28;20081;-68
2022/05/13 14:42:51;;;;;;;13.07;3.22;;;;;;;;;;5111506;28;20024;-68
2022/05/13 14:45:24;;;;;;;7.35;2.75;;;;;;;;;;5091255;28;20059;-68
2022/05/13 14:47:50;;;;;;;13.73;3.10;;;;;;;;;;5111218;28;20175;-68
2022/05/13 14:50:26;;;;;;;13.95;3.40;;;;;;;;;;5111621;28;20465;-68
2022/05/13 14:53:04;;;;;;;9.63;3.22;;;;;;;;;;5097340;28;20038;-68
2022/05/13 14:55:44;;;;;;;15.30;3.33;;;;;;;;;;5106038;28;20110;-68
2022/05/13 14:58:20;;;;;;;11.93;2.92;;;;;;;;;;5093287;28;20039;-68
2022/05/13 15:00:52;;;;;;;11.15;3.70;;;;;;;;;;5102066;28;20466;-68
2022/05/13 15:03:34;;;;;;;8.57;2.72;;;;;;;;;;5110607;28;20370;-68
2022/05/13 15:06:21;;;;;;;10.07;3.20;;;;;;;;;;5110319;28;20081;-68
2022/05/13 15:09:11;;;;;;;12.45;3.72;;;;;;;;;;5101625;28;20813;-68
2022/05/13 15:11:42;;;;;;;15.65;2.67;;;;;;;;;;5104346;28;20044;-68
2022/05/13 15:14:15;;;;;;;14.50;3.33;;;;;;;;;;5101628;28;20039;-68
2022/05/13 15:16:41;;;;;;;17.03;3.30;;;;;;;;;;5110020;28;20032;-68
2022/05/13 15:19:24;;;;;;;7.95;2.40;;;;;;;;;;5110905;28;20309;-68
2022/05/13 15:21:58;;;;;;;10.43;2.97;;;;;;;;;;5092321;28;20032;-68
2022/05/13 15:24:30;;;;;;;13.50;3.10;;;;;;;;;;5105497;28;20100;-68
2022/05/13 15:26:57;;;;;;;17.63;3.60;;;;;;;;;;5105343;28;20107;-68
2022/05/13 15:29:30;;;;;;;13.70;4.00;;;;;;;;;;5102270;28;20056;-68
2022/05/13 15:32:01;;;;;;;14.82;3.92;;;;;;;;;;5106766;28;20117;-68
2022/05/13 15:34:27;;;;;;;19.98;4.03;;;;;;;;;;5110429;28;20030;-68
2022/05/13 15:36:59;;;;;;;11.85;3.22;;;;;;;;;;5110058;28;20015;-69
2022/05/13 15:39:31;;;;;;;11.88;3.33;;;;;;;;;;5111266;28;20035;-68
2022/05/13 15:41:59;;;;;;;15.45;3.60;;;;;;;;;;5098271;28;20357;-68
2022/05/13 15:44:38;;;;;;;9.40;3.33;;;;;;;;;;5111059;28;20011;-68
2022/05/13 15:47:05;;;;;;;13.05;3.70;;;;;;;;;;5103459;28;20035;-68
2022/05/13 15:52:43;;;;;;;8.02;2.95;;;;;;;;;;5104705;28;20584;-68